createdAt,value
2023-04-11T00:00:56.066Z,13.00
2023-04-11T00:03:23.185Z,12.90
2023-04-11T00:05:50.562Z,13.35
2023-04-11T00:08:17.534Z,12.93
2023-04-11T00:10:45.659Z,12.30
2023-04-11T00:13:12.731Z,13.02
2023-04-11T00:15:39.597Z,13.30
2023-04-11T00:18:07.270Z,12.63
2023-04-11T00:20:34.289Z,13.73
2023-04-11T00:23:01.221Z,16.35
2023-04-11T00:25:30.205Z,13.95
2023-04-11T00:27:57.346Z,13.40
2023-04-11T00:30:24.112Z,13.98
2023-04-11T00:32:51.155Z,14.02
2023-04-11T00:35:18.241Z,14.05
2023-04-11T00:37:45.697Z,13.95
2023-04-11T00:40:14.385Z,15.00
2023-04-11T00:42:41.370Z,13.70
2023-04-11T00:45:08.743Z,13.57
2023-04-11T00:47:35.627Z,14.55
2023-04-11T00:50:02.523Z,12.70
2023-04-11T00:52:29.263Z,12.93
2023-04-11T00:54:56.116Z,14.25
2023-04-11T00:57:26.224Z,12.73
2023-04-11T00:59:53.004Z,12.70
2023-04-11T01:02:19.816Z,11.93
2023-04-11T01:04:46.881Z,11.32
2023-04-11T01:07:13.708Z,11.52
2023-04-11T01:09:40.517Z,11.23
2023-04-11T01:12:07.456Z,12.15
2023-04-11T01:14:34.271Z,12.18
2023-04-11T01:17:02.425Z,11.93
2023-04-11T01:19:29.537Z,12.52
2023-04-11T01:21:56.648Z,15.07
2023-04-11T01:24:23.529Z,12.57
2023-04-11T01:26:50.381Z,12.80
2023-04-11T01:29:17.119Z,12.65
2023-04-11T01:31:44.146Z,13.15
2023-04-11T01:34:13.578Z,13.90
2023-04-11T01:36:41.810Z,13.27
2023-04-11T01:39:08.629Z,13.77
2023-04-11T01:41:35.986Z,14.88
2023-04-11T01:44:04.205Z,14.30
2023-04-11T01:46:31.412Z,13.70
2023-04-11T01:48:59.134Z,13.45
2023-04-11T01:51:26.203Z,13.82
2023-04-11T01:53:52.919Z,14.35
2023-04-11T01:56:19.800Z,14.13
2023-04-11T01:58:46.598Z,12.90
2023-04-11T02:01:13.532Z,14.05
2023-04-11T02:03:40.833Z,14.07
2023-04-11T02:06:07.840Z,13.30
2023-04-11T02:08:34.689Z,13.52
2023-04-11T02:11:01.641Z,14.15
2023-04-11T02:13:28.411Z,13.50
2023-04-11T02:15:55.127Z,13.55
2023-04-11T02:18:21.992Z,13.90
2023-04-11T02:20:50.266Z,13.88
2023-04-11T02:23:17.090Z,13.77
2023-04-11T02:25:44.013Z,13.70
2023-04-11T02:28:10.875Z,13.40
2023-04-11T02:30:37.797Z,14.60
2023-04-11T02:33:04.850Z,14.27
2023-04-11T02:35:31.697Z,14.10
2023-04-11T02:37:58.763Z,13.45
2023-04-11T02:40:26.111Z,13.18
2023-04-11T02:42:55.425Z,13.95
2023-04-11T02:45:22.375Z,13.43
2023-04-11T02:47:49.242Z,12.70
2023-04-11T02:50:16.204Z,12.93
2023-04-11T02:52:46.583Z,14.13
2023-04-11T02:55:14.530Z,12.65
2023-04-11T02:57:41.322Z,12.20
2023-04-11T03:00:09.682Z,12.63
2023-04-11T03:02:36.826Z,13.27
2023-04-11T03:05:04.344Z,12.65
2023-04-11T03:07:32.439Z,13.80
2023-04-11T03:10:02.341Z,13.82
2023-04-11T03:12:29.171Z,13.43
2023-04-11T03:14:55.939Z,14.32
2023-04-11T03:17:22.852Z,15.75
2023-04-11T03:19:49.717Z,14.57
2023-04-11T03:22:17.446Z,13.80
2023-04-11T03:24:44.369Z,12.95
2023-04-11T03:27:11.180Z,13.75
2023-04-11T03:29:38.372Z,13.18
2023-04-11T03:32:05.630Z,11.77
2023-04-11T03:34:32.686Z,12.40
2023-04-11T03:36:59.502Z,13.05
2023-04-11T03:39:26.694Z,13.32
2023-04-11T03:41:53.545Z,12.55
2023-04-11T03:44:20.342Z,13.35
2023-04-11T03:46:47.093Z,12.70
2023-04-11T03:49:13.949Z,12.10
2023-04-11T03:51:40.947Z,11.88
2023-04-11T03:54:07.728Z,13.13
2023-04-11T03:56:34.589Z,12.57
2023-04-11T03:59:01.781Z,14.13
2023-04-11T04:01:28.610Z,12.60
2023-04-11T04:03:56.132Z,13.35
2023-04-11T04:06:23.353Z,12.63
2023-04-11T04:08:50.099Z,13.70
2023-04-11T04:11:17.054Z,13.30
2023-04-11T04:13:43.846Z,13.23
2023-04-11T04:16:10.714Z,14.40
2023-04-11T04:18:37.651Z,13.35
2023-04-11T04:21:04.483Z,15.75
2023-04-11T04:23:32.603Z,16.05
2023-04-11T04:26:02.460Z,14.63
2023-04-11T04:28:29.616Z,14.57
2023-04-11T04:30:58.234Z,16.33
2023-04-11T04:33:26.408Z,14.65
2023-04-11T04:35:58.228Z,15.38
2023-04-11T04:38:26.373Z,14.15
2023-04-11T04:40:54.981Z,14.15
2023-04-11T04:43:23.161Z,16.27
2023-04-11T04:45:50.274Z,15.60
2023-04-11T04:48:17.561Z,16.05
2023-04-11T04:50:45.843Z,17.42
2023-04-11T04:53:13.205Z,17.75
2023-04-11T04:55:39.925Z,17.77
2023-04-11T04:58:06.660Z,16.45
2023-04-11T05:00:33.861Z,16.67
2023-04-11T05:03:00.835Z,17.45
2023-04-11T05:05:27.725Z,16.50
2023-04-11T05:07:54.548Z,17.33
2023-04-11T05:10:21.437Z,17.40
2023-04-11T05:12:48.381Z,17.95
2023-04-11T05:15:15.518Z,18.02
2023-04-11T05:17:43.005Z,18.27
2023-04-11T05:20:10.452Z,19.15
2023-04-11T05:22:38.299Z,19.13
2023-04-11T05:25:05.985Z,18.27
2023-04-11T05:27:32.752Z,17.55
2023-04-11T05:30:01.244Z,18.90
2023-04-11T05:32:28.018Z,20.52
2023-04-11T05:34:58.684Z,20.05
2023-04-11T05:37:26.322Z,20.55
2023-04-11T05:39:53.221Z,19.48
2023-04-11T05:42:20.079Z,19.30
2023-04-11T05:44:46.917Z,19.80
2023-04-11T05:47:13.721Z,20.48
2023-04-11T05:49:40.665Z,19.98
2023-04-11T05:52:07.608Z,20.77
2023-04-11T05:54:35.556Z,19.08
2023-04-11T05:57:02.884Z,19.80
2023-04-11T05:59:33.307Z,24.17
2023-04-11T06:02:00.242Z,19.80
2023-04-11T06:04:27.257Z,19.98
2023-04-11T06:06:55.798Z,20.48
2023-04-11T06:09:22.549Z,20.42
2023-04-11T06:11:49.270Z,19.83
2023-04-11T06:14:16.267Z,19.33
2023-04-11T06:16:43.022Z,19.00
2023-04-11T06:19:09.928Z,19.52
2023-04-11T06:21:36.786Z,18.67
2023-04-11T06:24:10.299Z,22.25
2023-04-11T06:26:37.317Z,19.35
2023-04-11T06:29:04.561Z,19.75
2023-04-11T06:31:31.389Z,18.23
2023-04-11T06:33:58.841Z,16.95
2023-04-11T06:36:26.158Z,20.08
2023-04-11T06:38:53.075Z,18.55
2023-04-11T06:41:19.961Z,19.58
2023-04-11T06:43:46.748Z,18.58
2023-04-11T06:46:13.622Z,17.15
2023-04-11T06:48:40.544Z,18.70
2023-04-11T06:51:09.222Z,21.95
2023-04-11T06:53:36.123Z,18.52
2023-04-11T06:56:11.480Z,17.10
2023-04-11T06:58:38.217Z,15.18
2023-04-11T07:01:05.204Z,20.35
2023-04-11T07:03:32.731Z,17.45
2023-04-11T07:05:59.694Z,20.52
2023-04-11T07:08:26.447Z,19.10
2023-04-11T07:10:53.269Z,19.20
2023-04-11T07:13:21.470Z,18.65
2023-04-11T07:15:48.335Z,15.48
2023-04-11T07:18:15.308Z,15.02
2023-04-11T07:20:42.125Z,14.75
2023-04-11T07:23:08.969Z,17.25
2023-04-11T07:25:35.821Z,18.27
2023-04-11T07:28:08.289Z,16.02
2023-04-11T07:30:38.406Z,23.20
2023-04-11T07:33:05.503Z,17.85
2023-04-11T07:35:34.828Z,15.60
2023-04-11T07:38:01.948Z,16.27
2023-04-11T07:40:29.098Z,18.23
2023-04-11T07:42:55.828Z,16.02
2023-04-11T07:45:22.849Z,17.38
2023-04-11T07:47:49.681Z,19.95
2023-04-11T07:50:16.426Z,16.45
2023-04-11T07:52:43.488Z,16.58
2023-04-11T07:55:13.079Z,15.77
2023-04-11T07:57:39.858Z,16.27
2023-04-11T08:00:10.218Z,15.95
2023-04-11T08:02:38.369Z,15.48
2023-04-11T08:05:05.618Z,15.07
2023-04-11T08:07:32.684Z,15.18
2023-04-11T08:09:59.666Z,16.63
2023-04-11T08:12:26.430Z,16.70
2023-04-11T08:14:53.412Z,14.98
2023-04-11T08:17:27.595Z,15.38
2023-04-11T08:19:58.153Z,14.25
2023-04-11T08:22:26.078Z,16.13
2023-04-11T08:24:52.919Z,14.93
2023-04-11T08:27:20.142Z,15.30
2023-04-11T08:29:46.923Z,14.98
2023-04-11T08:32:13.648Z,15.95
2023-04-11T08:34:40.608Z,14.75
2023-04-11T08:37:07.394Z,13.70
2023-04-11T08:39:34.255Z,13.57
2023-04-11T08:42:01.356Z,15.32
2023-04-11T08:44:28.077Z,13.73
2023-04-11T08:46:54.836Z,13.57
2023-04-11T08:49:24.748Z,12.82
2023-04-11T08:51:53.425Z,12.25
2023-04-11T08:54:20.165Z,12.85
2023-04-11T08:56:47.764Z,12.90
2023-04-11T08:59:14.484Z,12.43
2023-04-11T09:01:41.435Z,12.60
2023-04-11T09:04:08.848Z,11.52
2023-04-11T09:06:35.611Z,11.00
2023-04-11T09:09:08.225Z,11.18
2023-04-11T09:11:54.201Z,10.80
2023-04-11T09:14:24.641Z,10.35
2023-04-11T09:17:06.978Z,10.85
2023-04-11T09:19:35.072Z,10.68
2023-04-11T09:22:05.496Z,10.07
2023-04-11T09:24:33.990Z,11.77
2023-04-11T09:27:15.970Z,9.65
2023-04-11T09:29:45.646Z,12.48
2023-04-11T09:32:34.684Z,11.20
2023-04-11T09:35:07.820Z,10.20
2023-04-11T09:37:58.405Z,9.65
2023-04-11T09:40:27.888Z,10.60
2023-04-11T09:42:57.871Z,10.15
2023-04-11T09:45:25.509Z,10.55
2023-04-11T09:47:53.908Z,11.48
2023-04-11T09:50:20.934Z,11.18
2023-04-11T09:52:47.743Z,12.65
2023-04-11T09:55:16.579Z,11.20
2023-04-11T09:57:50.556Z,11.40
2023-04-11T10:00:30.450Z,10.30
2023-04-11T10:02:57.434Z,11.23
2023-04-11T10:05:28.597Z,11.32
2023-04-11T10:08:33.041Z,11.25
2023-04-11T10:11:00.320Z,11.20
2023-04-11T10:13:43.145Z,11.35
2023-04-11T10:16:13.643Z,12.23
2023-04-11T10:19:04.778Z,11.10
2023-04-11T10:21:32.901Z,10.60
2023-04-11T10:24:16.274Z,11.63
2023-04-11T10:27:05.013Z,14.15
2023-04-11T10:29:34.946Z,11.63
2023-04-11T10:32:14.039Z,12.40
2023-04-11T10:37:09.880Z,11.20
2023-04-11T10:39:52.125Z,10.43
2023-04-11T10:42:28.393Z,10.95
2023-04-11T10:45:13.690Z,11.23
2023-04-11T10:47:40.568Z,11.32
2023-04-11T10:50:35.361Z,14.95
2023-04-11T10:53:05.435Z,10.27
2023-04-11T10:55:48.674Z,10.13
2023-04-11T10:58:22.364Z,11.07
2023-04-11T11:00:52.633Z,9.90
2023-04-11T11:03:30.951Z,12.65
2023-04-11T11:05:59.302Z,11.30
2023-04-11T11:08:38.057Z,11.63
2023-04-11T11:11:08.691Z,11.23
2023-04-11T11:13:43.443Z,10.73
2023-04-11T11:16:16.765Z,11.90
2023-04-11T11:19:01.781Z,10.07
2023-04-11T11:21:30.518Z,11.27
2023-04-11T11:24:01.100Z,11.25
2023-04-11T11:26:43.701Z,11.32
2023-04-11T11:29:10.810Z,10.60
2023-04-11T11:31:42.094Z,11.20
2023-04-11T11:34:23.052Z,12.15
2023-04-11T11:36:50.744Z,10.13
2023-04-11T11:39:18.219Z,11.60
2023-04-11T11:41:46.030Z,11.13
2023-04-11T11:44:26.670Z,10.68
2023-04-11T11:47:27.342Z,10.75
2023-04-11T11:49:54.997Z,11.00
2023-04-11T11:52:41.119Z,11.90
2023-04-11T11:55:11.371Z,11.18
2023-04-11T11:57:38.693Z,11.43
2023-04-11T12:00:06.168Z,10.90
2023-04-11T12:02:34.612Z,11.68
2023-04-11T12:05:04.172Z,12.10
2023-04-11T12:07:34.883Z,12.10
2023-04-11T12:10:02.291Z,12.73
2023-04-11T12:12:38.731Z,12.68
2023-04-11T12:15:18.518Z,11.40
2023-04-11T12:17:50.204Z,11.18
2023-04-11T12:20:17.057Z,11.60
2023-04-11T12:22:43.816Z,10.88
2023-04-11T12:25:14.781Z,10.43
2023-04-11T12:27:42.596Z,10.18
2023-04-11T12:30:10.229Z,12.88
2023-04-11T12:32:37.297Z,9.95
2023-04-11T12:35:05.309Z,12.13
2023-04-11T12:37:32.726Z,10.52
2023-04-11T12:39:59.635Z,10.85
2023-04-11T12:42:27.367Z,11.25
2023-04-11T12:44:54.629Z,10.00
2023-04-11T12:47:21.605Z,15.73
2023-04-11T12:49:48.430Z,13.10
2023-04-11T12:52:15.209Z,13.32
2023-04-11T12:54:42.174Z,11.40
2023-04-11T12:57:08.901Z,12.13
2023-04-11T12:59:35.726Z,11.13
2023-04-11T13:02:03.251Z,11.27
2023-04-11T13:04:30.620Z,10.55
2023-04-11T13:07:01.402Z,13.70
2023-04-11T13:09:29.883Z,10.30
2023-04-11T13:11:57.876Z,11.05
2023-04-11T13:14:24.722Z,11.07
2023-04-11T13:16:51.994Z,9.88
2023-04-11T13:19:18.808Z,10.65
2023-04-11T13:21:45.707Z,11.23
2023-04-11T13:24:12.620Z,10.50
2023-04-11T13:26:39.745Z,10.23
2023-04-11T13:29:07.751Z,12.02
2023-04-11T13:31:34.633Z,13.38
2023-04-11T13:34:02.414Z,12.13
2023-04-11T13:36:29.321Z,11.05
2023-04-11T13:38:56.948Z,10.77
2023-04-11T13:41:27.071Z,10.43
2023-04-11T13:43:53.916Z,11.38
2023-04-11T13:46:21.956Z,10.32
2023-04-11T13:48:48.934Z,13.48
2023-04-11T13:51:16.056Z,11.40
2023-04-11T13:53:42.826Z,10.50
2023-04-11T13:56:10.801Z,11.32
2023-04-11T13:58:38.348Z,12.68
2023-04-11T14:01:05.370Z,12.27
2023-04-11T14:03:33.913Z,11.93
2023-04-11T14:06:01.281Z,11.07
2023-04-11T14:08:28.909Z,11.65
2023-04-11T14:10:56.001Z,11.82
2023-04-11T14:13:22.906Z,11.70
2023-04-11T14:16:01.391Z,12.35
2023-04-11T14:18:34.625Z,11.57
2023-04-11T14:21:01.940Z,12.32
2023-04-11T14:23:29.378Z,13.68
2023-04-11T14:25:56.305Z,12.43
2023-04-11T14:28:26.536Z,13.57
2023-04-11T14:30:53.952Z,12.55
2023-04-11T14:33:21.020Z,12.80
2023-04-11T14:35:47.823Z,13.55
2023-04-11T14:38:17.472Z,12.20
2023-04-11T14:40:44.596Z,12.10
2023-04-11T14:43:11.404Z,16.42
2023-04-11T14:45:38.246Z,12.60
2023-04-11T14:48:05.744Z,12.23
2023-04-11T14:50:32.611Z,12.85
2023-04-11T14:52:59.368Z,10.80
2023-04-11T14:55:26.331Z,13.20
2023-04-11T14:57:54.194Z,13.35
2023-04-11T15:00:22.026Z,11.55
2023-04-11T15:02:51.367Z,12.00
2023-04-11T15:07:49.015Z,12.18
2023-04-11T15:10:17.548Z,11.77
2023-04-11T15:12:44.373Z,12.55
2023-04-11T15:15:11.445Z,11.35
2023-04-11T15:17:48.929Z,11.68
2023-04-11T15:20:16.107Z,13.85
2023-04-11T15:22:44.498Z,12.18
2023-04-11T15:25:13.277Z,12.48
2023-04-11T15:27:40.595Z,14.30
2023-04-11T15:30:07.899Z,13.27
2023-04-11T15:32:34.927Z,12.30
2023-04-11T15:35:01.851Z,13.02
2023-04-11T15:37:28.870Z,15.40
2023-04-11T15:39:57.779Z,11.80
2023-04-11T15:42:25.147Z,12.90
2023-04-11T15:44:52.026Z,11.40
2023-04-11T15:47:18.813Z,14.02
2023-04-11T15:49:45.982Z,11.65
2023-04-11T15:52:12.822Z,12.40
2023-04-11T15:54:39.631Z,12.55
2023-04-11T15:57:06.408Z,13.02
2023-04-11T15:59:33.957Z,11.88
2023-04-11T16:02:00.869Z,12.57
2023-04-11T16:04:27.770Z,12.70
2023-04-11T16:06:54.798Z,12.18
2023-04-11T16:09:21.533Z,12.23
2023-04-11T16:11:48.295Z,11.57
2023-04-11T16:14:15.127Z,12.18
2023-04-11T16:16:44.455Z,11.38
2023-04-11T16:19:11.213Z,16.17
2023-04-11T16:21:39.058Z,12.90
2023-04-11T16:24:06.988Z,12.38
2023-04-11T16:26:33.787Z,13.50
2023-04-11T16:29:00.727Z,11.90
2023-04-11T16:31:27.688Z,12.55
2023-04-11T16:33:55.423Z,12.02
2023-04-11T16:36:22.596Z,11.88
2023-04-11T16:38:52.496Z,13.02
2023-04-11T16:41:19.398Z,12.70
2023-04-11T16:43:47.039Z,11.75
2023-04-11T16:46:14.495Z,13.63
2023-04-11T16:48:44.253Z,13.23
2023-04-11T16:51:11.502Z,13.07
2023-04-11T16:53:38.924Z,12.02
2023-04-11T16:56:06.084Z,14.52
2023-04-11T16:58:32.919Z,14.07
2023-04-11T17:01:00.168Z,12.85
2023-04-11T17:03:27.397Z,11.57
2023-04-11T17:05:54.378Z,12.90
2023-04-11T17:08:21.473Z,11.73
2023-04-11T17:10:48.263Z,13.10
2023-04-11T17:13:16.142Z,12.45
2023-04-11T17:15:42.973Z,14.70
2023-04-11T17:18:09.766Z,11.30
2023-04-11T17:20:36.857Z,12.43
2023-04-11T17:23:03.649Z,12.77
2023-04-11T17:25:30.382Z,11.32
2023-04-11T17:27:57.778Z,12.27
2023-04-11T17:30:24.647Z,13.55
2023-04-11T17:32:51.504Z,11.80
2023-04-11T17:35:18.567Z,12.02
2023-04-11T17:37:45.344Z,12.65
2023-04-11T17:40:15.404Z,10.82
2023-04-11T17:42:42.247Z,11.52
2023-04-11T17:45:18.093Z,11.07
2023-04-11T17:47:45.644Z,15.75
2023-04-11T17:50:13.111Z,11.77
2023-04-11T17:52:44.312Z,12.93
2023-04-11T17:55:13.257Z,11.80
2023-04-11T17:57:40.244Z,12.23
2023-04-11T18:00:18.391Z,12.05
2023-04-11T18:02:48.273Z,15.00
2023-04-11T18:05:25.012Z,11.88
2023-04-11T18:07:54.227Z,11.57
2023-04-11T18:10:22.206Z,11.65
2023-04-11T18:12:50.202Z,14.30
2023-04-11T18:15:16.958Z,11.10
2023-04-11T18:17:46.493Z,12.05
2023-04-11T18:20:14.237Z,11.70
2023-04-11T18:22:42.526Z,12.20
2023-04-11T18:25:09.542Z,12.05
2023-04-11T18:27:37.417Z,12.57
2023-04-11T18:30:05.748Z,11.38
2023-04-11T18:32:38.264Z,10.82
2023-04-11T18:35:11.874Z,15.52
2023-04-11T18:37:42.853Z,12.00
2023-04-11T18:40:14.274Z,10.57
2023-04-11T18:42:42.466Z,10.90
2023-04-11T18:45:11.890Z,12.20
2023-04-11T18:50:07.077Z,11.70
2023-04-11T18:52:34.966Z,10.95
2023-04-11T18:55:02.059Z,9.35
2023-04-11T18:57:32.307Z,10.30
2023-04-11T19:00:10.277Z,11.57
2023-04-11T19:02:40.101Z,10.15
2023-04-11T19:05:13.982Z,10.90
2023-04-11T19:07:45.352Z,9.60
2023-04-11T19:10:12.228Z,9.40
2023-04-11T19:12:39.302Z,12.85
2023-04-11T19:15:07.892Z,13.30
2023-04-11T19:17:35.973Z,10.18
2023-04-11T19:20:06.940Z,11.82
2023-04-11T19:22:34.675Z,9.98
2023-04-11T19:25:01.501Z,12.43
2023-04-11T19:27:28.418Z,9.57
2023-04-11T19:29:55.183Z,13.20
2023-04-11T19:32:21.999Z,9.98
2023-04-11T19:34:50.802Z,9.48
2023-04-11T19:37:19.501Z,9.60
2023-04-11T19:39:46.373Z,9.38
2023-04-11T19:42:13.910Z,10.23
2023-04-11T19:44:42.123Z,10.93
2023-04-11T19:47:08.896Z,10.20
2023-04-11T19:49:36.003Z,10.15
2023-04-11T19:52:02.787Z,12.95
2023-04-11T19:54:30.873Z,10.55
2023-04-11T19:56:57.741Z,10.25
2023-04-11T19:59:24.479Z,11.18
2023-04-11T20:01:53.781Z,10.85
2023-04-11T20:04:20.710Z,13.38
2023-04-11T20:06:50.761Z,10.73
2023-04-11T20:09:17.593Z,12.13
2023-04-11T20:11:47.337Z,13.48
2023-04-11T20:16:40.880Z,14.02
2023-04-11T20:19:08.614Z,10.15
2023-04-11T20:21:35.503Z,11.07
2023-04-11T20:24:02.448Z,11.68
2023-04-11T20:26:29.412Z,10.68
2023-04-11T20:28:58.352Z,12.55
2023-04-11T20:31:25.751Z,10.27
2023-04-11T20:33:52.853Z,9.60
2023-04-11T20:36:19.795Z,10.55
2023-04-11T20:38:46.722Z,10.95
2023-04-11T20:41:14.033Z,11.90
2023-04-11T20:43:42.502Z,9.65
2023-04-11T20:46:09.338Z,10.75
2023-04-11T20:48:37.929Z,11.70
2023-04-11T20:51:04.871Z,11.20
2023-04-11T20:53:31.682Z,10.30
2023-04-11T20:55:58.637Z,10.07
2023-04-11T20:58:25.693Z,10.10
2023-04-11T21:00:55.957Z,11.10
2023-04-11T21:03:23.189Z,9.70
2023-04-11T21:05:50.289Z,11.13
2023-04-11T21:08:17.100Z,10.68
2023-04-11T21:10:43.997Z,10.77
2023-04-11T21:13:10.767Z,10.30
2023-04-11T21:15:37.564Z,10.75
2023-04-11T21:18:06.839Z,10.90
2023-04-11T21:20:34.623Z,10.82
2023-04-11T21:23:02.781Z,9.57
2023-04-11T21:25:29.685Z,10.13
2023-04-11T21:27:56.443Z,9.43
2023-04-11T21:30:23.372Z,9.57
2023-04-11T21:32:50.354Z,11.75
2023-04-11T21:35:17.175Z,17.05
2023-04-11T21:37:44.442Z,10.85
2023-04-11T21:40:12.943Z,10.93
2023-04-11T21:42:39.897Z,12.20
2023-04-11T21:45:08.403Z,11.70
2023-04-11T21:47:35.399Z,11.05
2023-04-11T21:50:02.427Z,10.48
2023-04-11T21:52:29.176Z,11.63
2023-04-11T21:54:56.161Z,10.00
2023-04-11T21:57:22.911Z,9.55
2023-04-11T21:59:49.658Z,10.20
2023-04-11T22:02:16.592Z,9.68
2023-04-11T22:04:56.436Z,9.73
2023-04-11T22:07:32.411Z,11.20
2023-04-11T22:10:03.573Z,10.32
2023-04-11T22:12:30.490Z,10.25
2023-04-11T22:14:57.413Z,10.55
2023-04-11T22:17:24.244Z,12.30
2023-04-11T22:19:51.169Z,11.93
2023-04-11T22:22:18.821Z,11.27
2023-04-11T22:24:48.980Z,9.65
2023-04-11T22:27:18.413Z,10.50
2023-04-11T22:29:45.538Z,9.45
2023-04-11T22:32:12.412Z,10.00
2023-04-11T22:34:39.392Z,10.73
2023-04-11T22:37:06.142Z,11.95
2023-04-11T22:39:33.365Z,9.80
2023-04-11T22:42:00.522Z,10.55
2023-04-11T22:44:27.264Z,10.32
2023-04-11T22:47:01.370Z,11.07
2023-04-11T22:49:28.143Z,10.55
2023-04-11T22:51:59.446Z,10.52
2023-04-11T22:54:27.488Z,10.93
2023-04-11T22:56:56.850Z,10.23
2023-04-11T22:59:24.590Z,10.57
2023-04-11T23:01:53.003Z,10.52
2023-04-11T23:04:20.738Z,11.65
2023-04-11T23:06:50.115Z,12.63
2023-04-11T23:09:17.993Z,10.10
2023-04-11T23:11:45.527Z,9.73
2023-04-11T23:14:14.295Z,11.38
2023-04-11T23:16:42.079Z,10.53
2023-04-11T23:19:09.314Z,11.13
2023-04-11T23:21:37.351Z,11.00
2023-04-11T23:24:05.441Z,10.25
2023-04-11T23:26:32.292Z,10.00
2023-04-11T23:29:00.840Z,10.35
2023-04-11T23:31:27.751Z,10.63
2023-04-11T23:33:54.911Z,10.65
2023-04-11T23:36:21.930Z,11.38
2023-04-11T23:38:48.779Z,10.90
2023-04-11T23:41:15.657Z,9.68
2023-04-11T23:43:42.508Z,10.77
2023-04-11T23:46:09.465Z,10.50
2023-04-11T23:48:36.424Z,10.00
2023-04-11T23:51:03.840Z,10.85
2023-04-11T23:53:32.012Z,13.10
2023-04-11T23:55:58.757Z,10.32
2023-04-11T23:58:25.745Z,10.82
